Darrington, Washington
Current Conditions -  °F | °C
As of 3:15 PM on Thursday 23 Oct 2014 (Local Time) from KAWO Reporting Station
Overcast Overcast  
Wind Chill: 55°   Ceiling: 3900
Heat Index: 55°   Visibility: 10mi
Dew Point: 45°   Wind: 13mph
Humidity: 67%   Direction: 180°S
Pressure: 29.84"   Gusts: NA
Location:  48.26°N, 121.6°W
Report Text: KAWO 232215Z AUTO 18011KT 10SM SCT030 BKN039 OVC049 13/07 A2984 RMK AO1
Loading
Personal Weather Stations






























Interactive Weather Map
Tropical Storm Tracking
New forecast layout! Learn more

10-Day Weather Forecast

Advertisements
Track Severe Weather on mobile